sensor_id;sensor_type;location;lat;lon;timestamp;temperature;humidity
8910;DHT22;4490;49.072;8.804;2024-01-30T00:01:11;3.00;99.90
8910;DHT22;4490;49.072;8.804;2024-01-30T00:03:37;3.00;99.90
8910;DHT22;4490;49.072;8.804;2024-01-30T00:06:03;2.90;99.90
8910;DHT22;4490;49.072;8.804;2024-01-30T00:08:29;2.90;99.90
8910;DHT22;4490;49.072;8.804;2024-01-30T00:10:54;2.90;99.90
8910;DHT22;4490;49.072;8.804;2024-01-30T00:13:20;2.90;99.90
8910;DHT22;4490;49.072;8.804;2024-01-30T00:15:46;2.90;99.90
8910;DHT22;4490;49.072;8.804;2024-01-30T00:18:11;2.80;99.90
8910;DHT22;4490;49.072;8.804;2024-01-30T00:20:37;2.80;99.90
8910;DHT22;4490;49.072;8.804;2024-01-30T00:23:03;2.80;99.90
8910;DHT22;4490;49.072;8.804;2024-01-30T00:25:29;2.80;99.90
8910;DHT22;4490;49.072;8.804;2024-01-30T00:27:54;2.80;99.90
8910;DHT22;4490;49.072;8.804;2024-01-30T00:30:20;2.80;99.90
8910;DHT22;4490;49.072;8.804;2024-01-30T00:32:46;2.80;99.90
8910;DHT22;4490;49.072;8.804;2024-01-30T00:35:12;2.80;99.90
8910;DHT22;4490;49.072;8.804;2024-01-30T00:37:37;2.80;99.90
8910;DHT22;4490;49.072;8.804;2024-01-30T00:40:03;2.80;99.90
8910;DHT22;4490;49.072;8.804;2024-01-30T00:42:29;2.80;99.90
8910;DHT22;4490;49.072;8.804;2024-01-30T00:44:55;2.80;99.90
8910;DHT22;4490;49.072;8.804;2024-01-30T00:47:20;2.80;99.90
8910;DHT22;4490;49.072;8.804;2024-01-30T00:49:46;2.80;99.90
8910;DHT22;4490;49.072;8.804;2024-01-30T00:52:11;2.80;99.90
8910;DHT22;4490;49.072;8.804;2024-01-30T00:54:37;2.80;99.90
8910;DHT22;4490;49.072;8.804;2024-01-30T00:57:03;2.70;99.90
8910;DHT22;4490;49.072;8.804;2024-01-30T00:59:28;2.70;99.90
8910;DHT22;4490;49.072;8.804;2024-01-30T01:01:54;2.70;99.90
8910;DHT22;4490;49.072;8.804;2024-01-30T01:04:20;2.70;99.90
8910;DHT22;4490;49.072;8.804;2024-01-30T01:06:47;2.70;99.90
8910;DHT22;4490;49.072;8.804;2024-01-30T01:09:13;2.70;99.90
8910;DHT22;4490;49.072;8.804;2024-01-30T01:11:38;2.70;99.90
8910;DHT22;4490;49.072;8.804;2024-01-30T01:14:04;2.60;99.90
8910;DHT22;4490;49.072;8.804;2024-01-30T01:16:30;2.60;99.90
8910;DHT22;4490;49.072;8.804;2024-01-30T01:18:56;2.60;99.90
8910;DHT22;4490;49.072;8.804;2024-01-30T01:21:22;2.60;99.90
8910;DHT22;4490;49.072;8.804;2024-01-30T01:23:48;2.50;99.90
8910;DHT22;4490;49.072;8.804;2024-01-30T01:26:14;2.60;99.90
8910;DHT22;4490;49.072;8.804;2024-01-30T01:28:41;2.50;99.90
8910;DHT22;4490;49.072;8.804;2024-01-30T01:31:06;2.50;99.90
8910;DHT22;4490;49.072;8.804;2024-01-30T01:33:32;2.60;99.90
8910;DHT22;4490;49.072;8.804;2024-01-30T01:35:59;2.50;99.90
8910;DHT22;4490;49.072;8.804;2024-01-30T01:38:25;2.50;99.90
8910;DHT22;4490;49.072;8.804;2024-01-30T01:40:51;2.50;99.90
8910;DHT22;4490;49.072;8.804;2024-01-30T01:43:16;2.50;99.90
8910;DHT22;4490;49.072;8.804;2024-01-30T01:45:42;2.40;99.90
8910;DHT22;4490;49.072;8.804;2024-01-30T01:48:08;2.40;99.90
8910;DHT22;4490;49.072;8.804;2024-01-30T01:50:35;2.30;99.90
8910;DHT22;4490;49.072;8.804;2024-01-30T01:53:01;2.30;99.90
8910;DHT22;4490;49.072;8.804;2024-01-30T01:55:29;2.30;99.90
8910;DHT22;4490;49.072;8.804;2024-01-30T01:57:55;2.30;99.90
8910;DHT22;4490;49.072;8.804;2024-01-30T02:00:21;2.30;99.90
8910;DHT22;4490;49.072;8.804;2024-01-30T02:02:47;2.30;99.90
8910;DHT22;4490;49.072;8.804;2024-01-30T02:05:14;2.30;99.90
8910;DHT22;4490;49.072;8.804;2024-01-30T02:07:41;2.40;99.90
8910;DHT22;4490;49.072;8.804;2024-01-30T02:10:08;2.30;99.90
8910;DHT22;4490;49.072;8.804;2024-01-30T02:12:35;2.30;99.90
8910;DHT22;4490;49.072;8.804;2024-01-30T02:15:00;2.30;99.90
8910;DHT22;4490;49.072;8.804;2024-01-30T02:17:26;2.30;99.90
8910;DHT22;4490;49.072;8.804;2024-01-30T02:19:52;2.20;99.90
8910;DHT22;4490;49.072;8.804;2024-01-30T02:22:18;2.20;99.90
8910;DHT22;4490;49.072;8.804;2024-01-30T02:24:44;2.20;99.90
8910;DHT22;4490;49.072;8.804;2024-01-30T02:27:10;2.20;99.90
8910;DHT22;4490;49.072;8.804;2024-01-30T02:29:36;2.20;99.90
8910;DHT22;4490;49.072;8.804;2024-01-30T02:32:01;2.20;99.90
8910;DHT22;4490;49.072;8.804;2024-01-30T02:34:27;2.20;99.90
8910;DHT22;4490;49.072;8.804;2024-01-30T02:36:53;2.20;99.90
8910;DHT22;4490;49.072;8.804;2024-01-30T02:39:18;2.20;99.90
8910;DHT22;4490;49.072;8.804;2024-01-30T02:41:44;2.20;99.90
8910;DHT22;4490;49.072;8.804;2024-01-30T02:44:09;2.20;99.90
8910;DHT22;4490;49.072;8.804;2024-01-30T02:46:35;2.20;99.90
8910;DHT22;4490;49.072;8.804;2024-01-30T02:49:00;2.20;99.90
8910;DHT22;4490;49.072;8.804;2024-01-30T02:51:26;2.20;99.90
8910;DHT22;4490;49.072;8.804;2024-01-30T02:53:52;2.20;99.90
8910;DHT22;4490;49.072;8.804;2024-01-30T02:56:17;2.20;99.90
8910;DHT22;4490;49.072;8.804;2024-01-30T02:58:43;2.20;99.90
8910;DHT22;4490;49.072;8.804;2024-01-30T03:01:09;2.10;99.90
8910;DHT22;4490;49.072;8.804;2024-01-30T03:03:34;2.10;99.90
8910;DHT22;4490;49.072;8.804;2024-01-30T03:06:01;2.10;99.90
8910;DHT22;4490;49.072;8.804;2024-01-30T03:08:27;2.10;99.90
8910;DHT22;4490;49.072;8.804;2024-01-30T03:10:53;2.10;99.90
8910;DHT22;4490;49.072;8.804;2024-01-30T03:13:18;2.10;99.90
8910;DHT22;4490;49.072;8.804;2024-01-30T03:15:44;2.10;99.90
8910;DHT22;4490;49.072;8.804;2024-01-30T03:18:10;2.10;99.90
8910;DHT22;4490;49.072;8.804;2024-01-30T03:20:35;2.10;99.90
8910;DHT22;4490;49.072;8.804;2024-01-30T03:23:01;2.10;99.90
8910;DHT22;4490;49.072;8.804;2024-01-30T03:25:27;2.10;99.90
8910;DHT22;4490;49.072;8.804;2024-01-30T03:27:52;2.10;99.90
8910;DHT22;4490;49.072;8.804;2024-01-30T03:30:18;2.10;99.90
8910;DHT22;4490;49.072;8.804;2024-01-30T03:32:43;2.00;99.90
8910;DHT22;4490;49.072;8.804;2024-01-30T03:35:09;2.00;99.90
8910;DHT22;4490;49.072;8.804;2024-01-30T03:37:35;2.00;99.90
8910;DHT22;4490;49.072;8.804;2024-01-30T03:40:01;2.00;99.90
8910;DHT22;4490;49.072;8.804;2024-01-30T03:42:28;2.00;99.90
8910;DHT22;4490;49.072;8.804;2024-01-30T03:44:53;1.90;99.90
8910;DHT22;4490;49.072;8.804;2024-01-30T03:47:21;2.00;99.90
8910;DHT22;4490;49.072;8.804;2024-01-30T03:49:47;2.00;99.90
8910;DHT22;4490;49.072;8.804;2024-01-30T03:52:12;2.00;99.90
8910;DHT22;4490;49.072;8.804;2024-01-30T03:54:38;2.00;99.90
8910;DHT22;4490;49.072;8.804;2024-01-30T03:57:04;2.00;99.90
8910;DHT22;4490;49.072;8.804;2024-01-30T03:59:29;2.00;99.90
8910;DHT22;4490;49.072;8.804;2024-01-30T04:01:55;2.00;99.90
8910;DHT22;4490;49.072;8.804;2024-01-30T04:04:21;2.00;99.90
8910;DHT22;4490;49.072;8.804;2024-01-30T04:06:46;2.00;99.90
8910;DHT22;4490;49.072;8.804;2024-01-30T04:09:13;2.00;99.90
8910;DHT22;4490;49.072;8.804;2024-01-30T04:11:39;2.00;99.90
8910;DHT22;4490;49.072;8.804;2024-01-30T04:14:05;2.00;99.90
8910;DHT22;4490;49.072;8.804;2024-01-30T04:16:30;2.00;99.90
8910;DHT22;4490;49.072;8.804;2024-01-30T04:18:56;2.00;99.90
8910;DHT22;4490;49.072;8.804;2024-01-30T04:21:22;2.00;99.90
8910;DHT22;4490;49.072;8.804;2024-01-30T04:23:48;1.90;99.90
8910;DHT22;4490;49.072;8.804;2024-01-30T04:26:14;1.90;99.90
8910;DHT22;4490;49.072;8.804;2024-01-30T04:28:44;1.90;99.90
8910;DHT22;4490;49.072;8.804;2024-01-30T04:31:10;1.90;99.90
8910;DHT22;4490;49.072;8.804;2024-01-30T04:33:36;1.90;99.90
8910;DHT22;4490;49.072;8.804;2024-01-30T04:36:01;1.90;99.90
8910;DHT22;4490;49.072;8.804;2024-01-30T04:38:28;1.80;99.90
8910;DHT22;4490;49.072;8.804;2024-01-30T04:40:53;1.80;99.90
8910;DHT22;4490;49.072;8.804;2024-01-30T04:43:19;1.80;99.90
8910;DHT22;4490;49.072;8.804;2024-01-30T04:45:45;1.80;99.90
8910;DHT22;4490;49.072;8.804;2024-01-30T04:48:10;1.80;99.90
8910;DHT22;4490;49.072;8.804;2024-01-30T04:50:36;1.80;99.90
8910;DHT22;4490;49.072;8.804;2024-01-30T04:53:01;1.80;99.90
8910;DHT22;4490;49.072;8.804;2024-01-30T04:55:27;1.80;99.90
8910;DHT22;4490;49.072;8.804;2024-01-30T04:57:53;1.80;99.90
8910;DHT22;4490;49.072;8.804;2024-01-30T05:00:18;1.80;99.90
8910;DHT22;4490;49.072;8.804;2024-01-30T05:02:44;1.70;99.90
8910;DHT22;4490;49.072;8.804;2024-01-30T05:05:10;1.80;99.90
8910;DHT22;4490;49.072;8.804;2024-01-30T05:07:36;1.80;99.90
8910;DHT22;4490;49.072;8.804;2024-01-30T05:10:02;1.80;99.90
8910;DHT22;4490;49.072;8.804;2024-01-30T05:12:28;1.80;99.90
8910;DHT22;4490;49.072;8.804;2024-01-30T05:14:54;1.80;99.90
8910;DHT22;4490;49.072;8.804;2024-01-30T05:17:19;1.80;99.90
8910;DHT22;4490;49.072;8.804;2024-01-30T05:19:45;1.80;99.90
8910;DHT22;4490;49.072;8.804;2024-01-30T05:22:11;1.80;99.90
8910;DHT22;4490;49.072;8.804;2024-01-30T05:24:41;1.80;99.90
8910;DHT22;4490;49.072;8.804;2024-01-30T05:27:07;1.80;99.90
8910;DHT22;4490;49.072;8.804;2024-01-30T05:29:33;1.80;99.90
8910;DHT22;4490;49.072;8.804;2024-01-30T05:31:59;1.70;99.90
8910;DHT22;4490;49.072;8.804;2024-01-30T05:34:24;1.80;99.90
8910;DHT22;4490;49.072;8.804;2024-01-30T05:36:50;1.70;99.90
8910;DHT22;4490;49.072;8.804;2024-01-30T05:39:15;1.70;99.90
8910;DHT22;4490;49.072;8.804;2024-01-30T05:41:41;1.70;99.90
8910;DHT22;4490;49.072;8.804;2024-01-30T05:44:07;1.70;99.90
8910;DHT22;4490;49.072;8.804;2024-01-30T05:46:33;1.70;99.90
8910;DHT22;4490;49.072;8.804;2024-01-30T05:48:59;1.70;99.90
8910;DHT22;4490;49.072;8.804;2024-01-30T05:51:24;1.70;99.90
8910;DHT22;4490;49.072;8.804;2024-01-30T05:53:50;1.70;99.90
8910;DHT22;4490;49.072;8.804;2024-01-30T05:56:15;1.70;99.90
8910;DHT22;4490;49.072;8.804;2024-01-30T05:58:41;1.70;99.90
8910;DHT22;4490;49.072;8.804;2024-01-30T06:01:08;1.70;99.90
8910;DHT22;4490;49.072;8.804;2024-01-30T06:03:34;1.70;99.90
8910;DHT22;4490;49.072;8.804;2024-01-30T06:06:00;1.70;99.90
8910;DHT22;4490;49.072;8.804;2024-01-30T06:08:25;1.70;99.90
8910;DHT22;4490;49.072;8.804;2024-01-30T06:10:51;1.60;99.90
8910;DHT22;4490;49.072;8.804;2024-01-30T06:13:16;1.70;99.90
8910;DHT22;4490;49.072;8.804;2024-01-30T06:15:42;1.60;99.90
8910;DHT22;4490;49.072;8.804;2024-01-30T06:18:08;1.60;99.90
8910;DHT22;4490;49.072;8.804;2024-01-30T06:20:34;1.60;99.90
8910;DHT22;4490;49.072;8.804;2024-01-30T06:22:59;1.50;99.90
8910;DHT22;4490;49.072;8.804;2024-01-30T06:25:25;1.50;99.90
8910;DHT22;4490;49.072;8.804;2024-01-30T06:27:50;1.50;99.90
8910;DHT22;4490;49.072;8.804;2024-01-30T06:30:17;1.50;99.90
8910;DHT22;4490;49.072;8.804;2024-01-30T06:32:43;1.50;99.90
8910;DHT22;4490;49.072;8.804;2024-01-30T06:35:09;1.50;99.90
8910;DHT22;4490;49.072;8.804;2024-01-30T06:37:36;1.50;99.90
8910;DHT22;4490;49.072;8.804;2024-01-30T06:40:01;1.40;99.90
8910;DHT22;4490;49.072;8.804;2024-01-30T06:42:27;1.40;99.90
8910;DHT22;4490;49.072;8.804;2024-01-30T06:44:53;1.40;99.90
8910;DHT22;4490;49.072;8.804;2024-01-30T06:47:19;1.40;99.90
8910;DHT22;4490;49.072;8.804;2024-01-30T06:49:44;1.40;99.90
8910;DHT22;4490;49.072;8.804;2024-01-30T06:52:10;1.40;99.90
8910;DHT22;4490;49.072;8.804;2024-01-30T06:54:37;1.40;99.90
8910;DHT22;4490;49.072;8.804;2024-01-30T06:57:02;1.40;99.90
8910;DHT22;4490;49.072;8.804;2024-01-30T06:59:28;1.40;99.90
8910;DHT22;4490;49.072;8.804;2024-01-30T07:01:54;1.40;99.90
8910;DHT22;4490;49.072;8.804;2024-01-30T07:04:19;1.40;99.90
8910;DHT22;4490;49.072;8.804;2024-01-30T07:06:45;1.40;99.90
8910;DHT22;4490;49.072;8.804;2024-01-30T07:09:11;1.40;99.90
8910;DHT22;4490;49.072;8.804;2024-01-30T07:11:37;1.40;99.90
8910;DHT22;4490;49.072;8.804;2024-01-30T07:14:02;1.40;99.90
8910;DHT22;4490;49.072;8.804;2024-01-30T07:16:31;1.30;99.90
8910;DHT22;4490;49.072;8.804;2024-01-30T07:18:56;1.40;99.90
8910;DHT22;4490;49.072;8.804;2024-01-30T07:21:22;1.30;99.90
8910;DHT22;4490;49.072;8.804;2024-01-30T07:23:55;1.40;99.90
8910;DHT22;4490;49.072;8.804;2024-01-30T07:26:21;1.40;99.90
8910;DHT22;4490;49.072;8.804;2024-01-30T07:28:47;1.40;99.90
8910;DHT22;4490;49.072;8.804;2024-01-30T07:31:13;1.40;99.90
8910;DHT22;4490;49.072;8.804;2024-01-30T07:33:38;1.50;99.90
8910;DHT22;4490;49.072;8.804;2024-01-30T07:36:04;1.50;99.90
8910;DHT22;4490;49.072;8.804;2024-01-30T07:38:33;1.60;99.90
8910;DHT22;4490;49.072;8.804;2024-01-30T07:40:58;1.60;99.90
8910;DHT22;4490;49.072;8.804;2024-01-30T07:43:24;1.60;99.90
8910;DHT22;4490;49.072;8.804;2024-01-30T07:45:50;1.70;99.90
8910;DHT22;4490;49.072;8.804;2024-01-30T07:48:15;1.70;99.90
8910;DHT22;4490;49.072;8.804;2024-01-30T07:50:41;1.80;99.90
8910;DHT22;4490;49.072;8.804;2024-01-30T07:53:07;1.80;99.90
8910;DHT22;4490;49.072;8.804;2024-01-30T07:55:32;1.80;99.90
8910;DHT22;4490;49.072;8.804;2024-01-30T07:57:58;1.90;99.90
8910;DHT22;4490;49.072;8.804;2024-01-30T08:00:24;1.90;99.90
8910;DHT22;4490;49.072;8.804;2024-01-30T08:02:50;1.90;99.90
8910;DHT22;4490;49.072;8.804;2024-01-30T08:05:15;2.00;99.90
8910;DHT22;4490;49.072;8.804;2024-01-30T08:07:41;2.10;99.90
8910;DHT22;4490;49.072;8.804;2024-01-30T08:10:08;2.10;99.90
8910;DHT22;4490;49.072;8.804;2024-01-30T08:12:34;2.20;99.90
8910;DHT22;4490;49.072;8.804;2024-01-30T08:14:59;2.30;99.90
8910;DHT22;4490;49.072;8.804;2024-01-30T08:17:25;2.30;99.90
8910;DHT22;4490;49.072;8.804;2024-01-30T08:19:51;2.40;99.90
8910;DHT22;4490;49.072;8.804;2024-01-30T08:22:16;2.50;99.90
8910;DHT22;4490;49.072;8.804;2024-01-30T08:24:42;2.60;99.90
8910;DHT22;4490;49.072;8.804;2024-01-30T08:27:07;2.60;99.90
8910;DHT22;4490;49.072;8.804;2024-01-30T08:29:36;2.60;99.90
8910;DHT22;4490;49.072;8.804;2024-01-30T08:32:01;2.60;99.90
8910;DHT22;4490;49.072;8.804;2024-01-30T08:34:27;2.70;99.90
8910;DHT22;4490;49.072;8.804;2024-01-30T08:36:53;2.80;99.90
8910;DHT22;4490;49.072;8.804;2024-01-30T08:39:19;2.80;99.90
8910;DHT22;4490;49.072;8.804;2024-01-30T08:41:45;2.90;99.90
8910;DHT22;4490;49.072;8.804;2024-01-30T08:44:11;2.90;99.90
8910;DHT22;4490;49.072;8.804;2024-01-30T08:46:36;3.00;99.90
8910;DHT22;4490;49.072;8.804;2024-01-30T08:49:02;3.10;99.90
8910;DHT22;4490;49.072;8.804;2024-01-30T08:51:29;3.10;99.90
8910;DHT22;4490;49.072;8.804;2024-01-30T08:53:55;3.20;99.90
8910;DHT22;4490;49.072;8.804;2024-01-30T08:56:21;3.30;99.90
8910;DHT22;4490;49.072;8.804;2024-01-30T08:58:46;3.30;99.90
8910;DHT22;4490;49.072;8.804;2024-01-30T09:01:12;3.40;99.90
8910;DHT22;4490;49.072;8.804;2024-01-30T09:03:38;3.50;99.90
8910;DHT22;4490;49.072;8.804;2024-01-30T09:06:09;3.60;99.90
8910;DHT22;4490;49.072;8.804;2024-01-30T09:08:34;3.70;99.90
8910;DHT22;4490;49.072;8.804;2024-01-30T09:11:00;3.70;99.90
8910;DHT22;4490;49.072;8.804;2024-01-30T09:13:26;3.80;99.90
8910;DHT22;4490;49.072;8.804;2024-01-30T09:15:51;3.90;99.90
8910;DHT22;4490;49.072;8.804;2024-01-30T09:18:18;4.00;99.90
8910;DHT22;4490;49.072;8.804;2024-01-30T09:20:43;4.10;99.90
8910;DHT22;4490;49.072;8.804;2024-01-30T09:23:12;4.10;99.90
8910;DHT22;4490;49.072;8.804;2024-01-30T09:25:38;4.20;99.90
8910;DHT22;4490;49.072;8.804;2024-01-30T09:28:04;4.30;99.90
8910;DHT22;4490;49.072;8.804;2024-01-30T09:30:30;4.40;99.90
8910;DHT22;4490;49.072;8.804;2024-01-30T09:32:55;4.40;99.90
8910;DHT22;4490;49.072;8.804;2024-01-30T09:35:21;4.50;99.90
8910;DHT22;4490;49.072;8.804;2024-01-30T09:37:46;4.50;99.90
8910;DHT22;4490;49.072;8.804;2024-01-30T09:40:12;4.60;99.90
8910;DHT22;4490;49.072;8.804;2024-01-30T09:42:38;4.60;99.90
8910;DHT22;4490;49.072;8.804;2024-01-30T09:45:04;4.70;99.90
8910;DHT22;4490;49.072;8.804;2024-01-30T09:47:43;4.80;99.90
8910;DHT22;4490;49.072;8.804;2024-01-30T09:50:10;4.80;99.90
8910;DHT22;4490;49.072;8.804;2024-01-30T09:52:35;4.90;99.90
8910;DHT22;4490;49.072;8.804;2024-01-30T09:55:02;4.90;99.90
8910;DHT22;4490;49.072;8.804;2024-01-30T09:57:28;4.90;99.90
8910;DHT22;4490;49.072;8.804;2024-01-30T09:59:54;5.00;99.90
8910;DHT22;4490;49.072;8.804;2024-01-30T10:02:20;5.00;99.90
8910;DHT22;4490;49.072;8.804;2024-01-30T10:04:50;5.00;99.90
8910;DHT22;4490;49.072;8.804;2024-01-30T10:07:17;5.10;99.90
8910;DHT22;4490;49.072;8.804;2024-01-30T10:09:43;5.10;99.90
8910;DHT22;4490;49.072;8.804;2024-01-30T10:12:12;5.10;99.90
8910;DHT22;4490;49.072;8.804;2024-01-30T10:14:39;5.20;99.90
8910;DHT22;4490;49.072;8.804;2024-01-30T10:17:04;5.20;99.90
8910;DHT22;4490;49.072;8.804;2024-01-30T10:19:31;5.30;99.90
8910;DHT22;4490;49.072;8.804;2024-01-30T10:21:56;5.30;99.90
8910;DHT22;4490;49.072;8.804;2024-01-30T10:24:26;5.40;99.90
8910;DHT22;4490;49.072;8.804;2024-01-30T10:26:53;5.40;99.90
8910;DHT22;4490;49.072;8.804;2024-01-30T10:29:19;5.50;99.90
8910;DHT22;4490;49.072;8.804;2024-01-30T10:31:44;5.60;99.90
8910;DHT22;4490;49.072;8.804;2024-01-30T10:34:10;5.60;99.90
8910;DHT22;4490;49.072;8.804;2024-01-30T10:36:43;5.70;99.90
8910;DHT22;4490;49.072;8.804;2024-01-30T10:39:13;5.80;99.90
8910;DHT22;4490;49.072;8.804;2024-01-30T10:41:44;5.80;99.90
8910;DHT22;4490;49.072;8.804;2024-01-30T10:44:11;5.90;99.90
8910;DHT22;4490;49.072;8.804;2024-01-30T10:46:42;6.00;99.90
8910;DHT22;4490;49.072;8.804;2024-01-30T10:49:08;6.00;99.90
8910;DHT22;4490;49.072;8.804;2024-01-30T10:51:34;6.10;99.90
8910;DHT22;4490;49.072;8.804;2024-01-30T10:54:03;6.10;99.90
8910;DHT22;4490;49.072;8.804;2024-01-30T10:56:32;6.20;99.90
8910;DHT22;4490;49.072;8.804;2024-01-30T10:58:58;6.20;99.90
8910;DHT22;4490;49.072;8.804;2024-01-30T11:01:25;6.30;99.90
8910;DHT22;4490;49.072;8.804;2024-01-30T11:03:51;6.30;99.90
8910;DHT22;4490;49.072;8.804;2024-01-30T11:06:18;6.40;99.90
8910;DHT22;4490;49.072;8.804;2024-01-30T11:08:46;6.40;99.90
8910;DHT22;4490;49.072;8.804;2024-01-30T11:11:25;6.50;99.90
8910;DHT22;4490;49.072;8.804;2024-01-30T11:13:50;6.50;99.90
8910;DHT22;4490;49.072;8.804;2024-01-30T11:16:16;6.60;99.90
8910;DHT22;4490;49.072;8.804;2024-01-30T11:18:41;6.60;99.90
8910;DHT22;4490;49.072;8.804;2024-01-30T11:21:07;6.70;99.90
8910;DHT22;4490;49.072;8.804;2024-01-30T11:23:34;6.70;99.90
8910;DHT22;4490;49.072;8.804;2024-01-30T11:26:01;6.80;99.90
8910;DHT22;4490;49.072;8.804;2024-01-30T11:28:33;6.90;99.90
8910;DHT22;4490;49.072;8.804;2024-01-30T11:31:06;6.90;99.90
8910;DHT22;4490;49.072;8.804;2024-01-30T11:33:32;7.00;99.90
8910;DHT22;4490;49.072;8.804;2024-01-30T11:36:00;7.00;99.90
8910;DHT22;4490;49.072;8.804;2024-01-30T11:38:26;7.10;99.90
8910;DHT22;4490;49.072;8.804;2024-01-30T11:40:54;7.20;99.90
8910;DHT22;4490;49.072;8.804;2024-01-30T11:43:21;7.20;99.90
8910;DHT22;4490;49.072;8.804;2024-01-30T11:45:47;7.30;99.90
8910;DHT22;4490;49.072;8.804;2024-01-30T11:48:13;7.40;99.90
8910;DHT22;4490;49.072;8.804;2024-01-30T11:50:39;7.50;99.90
8910;DHT22;4490;49.072;8.804;2024-01-30T11:53:06;7.60;99.90
8910;DHT22;4490;49.072;8.804;2024-01-30T11:55:32;7.60;99.90
8910;DHT22;4490;49.072;8.804;2024-01-30T11:57:58;7.70;99.90
8910;DHT22;4490;49.072;8.804;2024-01-30T12:00:24;7.80;99.90
8910;DHT22;4490;49.072;8.804;2024-01-30T12:02:54;7.90;99.90
8910;DHT22;4490;49.072;8.804;2024-01-30T12:05:24;8.00;99.90
8910;DHT22;4490;49.072;8.804;2024-01-30T12:07:50;8.00;99.90
8910;DHT22;4490;49.072;8.804;2024-01-30T12:10:16;8.10;99.90
8910;DHT22;4490;49.072;8.804;2024-01-30T12:12:45;8.20;99.90
8910;DHT22;4490;49.072;8.804;2024-01-30T12:15:12;8.30;99.90
8910;DHT22;4490;49.072;8.804;2024-01-30T12:17:38;8.40;99.90
8910;DHT22;4490;49.072;8.804;2024-01-30T12:20:10;8.50;99.90
8910;DHT22;4490;49.072;8.804;2024-01-30T12:22:43;8.60;99.90
8910;DHT22;4490;49.072;8.804;2024-01-30T12:25:20;8.70;99.90
8910;DHT22;4490;49.072;8.804;2024-01-30T12:27:52;8.80;99.90
8910;DHT22;4490;49.072;8.804;2024-01-30T12:30:21;8.80;99.90
8910;DHT22;4490;49.072;8.804;2024-01-30T12:32:48;8.90;99.90
8910;DHT22;4490;49.072;8.804;2024-01-30T12:35:19;8.90;99.90
8910;DHT22;4490;49.072;8.804;2024-01-30T12:37:45;9.00;99.90
8910;DHT22;4490;49.072;8.804;2024-01-30T12:40:13;9.00;99.90
8910;DHT22;4490;49.072;8.804;2024-01-30T12:42:43;9.00;99.90
8910;DHT22;4490;49.072;8.804;2024-01-30T12:45:11;9.00;99.90
8910;DHT22;4490;49.072;8.804;2024-01-30T12:47:37;9.10;99.90
8910;DHT22;4490;49.072;8.804;2024-01-30T12:50:02;9.20;99.90
8910;DHT22;4490;49.072;8.804;2024-01-30T12:52:28;9.30;99.90
8910;DHT22;4490;49.072;8.804;2024-01-30T12:54:54;9.30;99.90
8910;DHT22;4490;49.072;8.804;2024-01-30T12:57:20;9.40;99.90
8910;DHT22;4490;49.072;8.804;2024-01-30T12:59:46;9.40;99.90
8910;DHT22;4490;49.072;8.804;2024-01-30T13:02:13;9.50;99.90
8910;DHT22;4490;49.072;8.804;2024-01-30T13:04:39;9.60;99.90
8910;DHT22;4490;49.072;8.804;2024-01-30T13:07:05;9.60;99.90
8910;DHT22;4490;49.072;8.804;2024-01-30T13:09:30;9.70;99.90
8910;DHT22;4490;49.072;8.804;2024-01-30T13:11:59;9.80;99.90
8910;DHT22;4490;49.072;8.804;2024-01-30T13:14:27;9.90;99.90
8910;DHT22;4490;49.072;8.804;2024-01-30T13:16:53;10.00;99.90
8910;DHT22;4490;49.072;8.804;2024-01-30T13:19:19;10.00;99.90
8910;DHT22;4490;49.072;8.804;2024-01-30T13:21:44;10.10;99.90
8910;DHT22;4490;49.072;8.804;2024-01-30T13:24:10;10.10;99.90
8910;DHT22;4490;49.072;8.804;2024-01-30T13:26:36;10.20;99.90
8910;DHT22;4490;49.072;8.804;2024-01-30T13:29:02;10.30;99.90
8910;DHT22;4490;49.072;8.804;2024-01-30T13:31:29;10.30;99.90
8910;DHT22;4490;49.072;8.804;2024-01-30T13:33:55;10.40;99.90
8910;DHT22;4490;49.072;8.804;2024-01-30T13:36:21;10.40;99.90
8910;DHT22;4490;49.072;8.804;2024-01-30T13:38:47;10.40;99.90
8910;DHT22;4490;49.072;8.804;2024-01-30T13:41:13;10.50;99.90
8910;DHT22;4490;49.072;8.804;2024-01-30T13:43:39;10.50;99.20
8910;DHT22;4490;49.072;8.804;2024-01-30T13:46:04;10.60;98.80
8910;DHT22;4490;49.072;8.804;2024-01-30T13:48:31;10.60;98.50
8910;DHT22;4490;49.072;8.804;2024-01-30T13:50:57;10.60;98.60
8910;DHT22;4490;49.072;8.804;2024-01-30T13:53:22;10.70;98.70
8910;DHT22;4490;49.072;8.804;2024-01-30T13:55:48;10.70;98.80
8910;DHT22;4490;49.072;8.804;2024-01-30T13:58:14;10.80;98.40
8910;DHT22;4490;49.072;8.804;2024-01-30T14:00:39;10.90;98.20
8910;DHT22;4490;49.072;8.804;2024-01-30T14:03:05;10.90;97.50
8910;DHT22;4490;49.072;8.804;2024-01-30T14:05:31;11.00;96.80
8910;DHT22;4490;49.072;8.804;2024-01-30T14:07:57;11.00;96.20
8910;DHT22;4490;49.072;8.804;2024-01-30T14:10:25;11.10;96.00
8910;DHT22;4490;49.072;8.804;2024-01-30T14:12:51;11.10;96.10
8910;DHT22;4490;49.072;8.804;2024-01-30T14:15:16;11.10;96.00
8910;DHT22;4490;49.072;8.804;2024-01-30T14:17:45;11.10;95.50
8910;DHT22;4490;49.072;8.804;2024-01-30T14:20:11;11.10;95.30
8910;DHT22;4490;49.072;8.804;2024-01-30T14:22:36;11.10;94.90
8910;DHT22;4490;49.072;8.804;2024-01-30T14:25:02;11.10;94.70
8910;DHT22;4490;49.072;8.804;2024-01-30T14:27:31;11.10;94.80
8910;DHT22;4490;49.072;8.804;2024-01-30T14:29:57;11.10;94.90
8910;DHT22;4490;49.072;8.804;2024-01-30T14:32:23;11.00;95.20
8910;DHT22;4490;49.072;8.804;2024-01-30T14:34:50;11.00;94.90
8910;DHT22;4490;49.072;8.804;2024-01-30T14:37:15;11.00;94.90
8910;DHT22;4490;49.072;8.804;2024-01-30T14:39:42;11.00;94.90
8910;DHT22;4490;49.072;8.804;2024-01-30T14:42:07;11.00;95.10
8910;DHT22;4490;49.072;8.804;2024-01-30T14:44:33;11.00;95.20
8910;DHT22;4490;49.072;8.804;2024-01-30T14:46:59;11.00;95.30
8910;DHT22;4490;49.072;8.804;2024-01-30T14:49:25;11.00;95.30
8910;DHT22;4490;49.072;8.804;2024-01-30T14:51:51;11.00;95.50
8910;DHT22;4490;49.072;8.804;2024-01-30T14:54:17;10.90;95.60
8910;DHT22;4490;49.072;8.804;2024-01-30T14:56:44;10.90;95.80
8910;DHT22;4490;49.072;8.804;2024-01-30T14:59:10;10.90;95.90
8910;DHT22;4490;49.072;8.804;2024-01-30T15:01:35;10.80;96.00
8910;DHT22;4490;49.072;8.804;2024-01-30T15:04:01;10.80;96.10
8910;DHT22;4490;49.072;8.804;2024-01-30T15:06:28;10.80;96.20
8910;DHT22;4490;49.072;8.804;2024-01-30T15:08:54;10.70;96.30
8910;DHT22;4490;49.072;8.804;2024-01-30T15:11:19;10.70;96.50
8910;DHT22;4490;49.072;8.804;2024-01-30T15:13:45;10.70;96.60
8910;DHT22;4490;49.072;8.804;2024-01-30T15:16:11;10.70;96.70
8910;DHT22;4490;49.072;8.804;2024-01-30T15:18:37;10.60;96.90
8910;DHT22;4490;49.072;8.804;2024-01-30T15:21:02;10.60;97.10
8910;DHT22;4490;49.072;8.804;2024-01-30T15:23:28;10.50;97.10
8910;DHT22;4490;49.072;8.804;2024-01-30T15:25:54;10.50;96.90
8910;DHT22;4490;49.072;8.804;2024-01-30T15:28:34;10.50;97.10
8910;DHT22;4490;49.072;8.804;2024-01-30T15:31:01;10.40;97.10
8910;DHT22;4490;49.072;8.804;2024-01-30T15:33:27;10.40;97.20
8910;DHT22;4490;49.072;8.804;2024-01-30T15:35:53;10.40;97.30
8910;DHT22;4490;49.072;8.804;2024-01-30T15:38:19;10.40;97.40
8910;DHT22;4490;49.072;8.804;2024-01-30T15:40:46;10.30;97.40
8910;DHT22;4490;49.072;8.804;2024-01-30T15:43:12;10.30;97.50
8910;DHT22;4490;49.072;8.804;2024-01-30T15:45:38;10.30;97.50
8910;DHT22;4490;49.072;8.804;2024-01-30T15:48:04;10.30;97.40
8910;DHT22;4490;49.072;8.804;2024-01-30T15:50:30;10.20;97.40
8910;DHT22;4490;49.072;8.804;2024-01-30T15:52:55;10.20;97.20
8910;DHT22;4490;49.072;8.804;2024-01-30T15:55:21;10.20;97.10
8910;DHT22;4490;49.072;8.804;2024-01-30T15:57:46;10.20;97.00
8910;DHT22;4490;49.072;8.804;2024-01-30T16:00:12;10.20;97.10
8910;DHT22;4490;49.072;8.804;2024-01-30T16:02:38;10.10;97.20
8910;DHT22;4490;49.072;8.804;2024-01-30T16:05:04;10.10;97.30
8910;DHT22;4490;49.072;8.804;2024-01-30T16:07:30;10.10;97.40